Briefing drone pour Varennes-vauzelles

Rechercher une autre localisation

Conditions de vol :


Nous sommes le : Vendredi 07 mai 2021
Il est 00:45 UTC (02:45 LT)

Lever de soleil : 03:55 UTC (05:55 LT)
Coucher de soleil : 19:32 UTC (21:32 LT)

Météo

L'essentiel des conditions de vol

VIGILANCE MÉTÉO FRANCE - Nièvre (58)
Vigilance Jaune : Orages / Vent violent
CARTE TEMSI
CARTES DES FRONTS
METAR de LFQG
LFQG 061800Z AUTO 24009KT 190V270 9999 BKN037 BKN048 15/09 Q1009

Date d'émission: 06/05/2021
Heure d'émission: 18:00 UTC
Vent: 240° (variable du 190° au 270°) pour 9 KT (17 km/h)
Visibilité horizontale: > 10 km
Plafond :
- Nuages morcelés à 3700ft (1128m)
- Nuages morcelés à 4800ft (1463m)
Température: 15 °C
Point de rosée: 9 °C
Humidité: 67%
Pression (QNH): 1009 hPa
Prévision 24h pour Nevers (2 km)
Vent : 82° pour 1 KT (2 km/h)
Temperature Maxi: 6 °C
Temperature Min: 6 °C
Humidité : 83%
Condition : Nuageux



Warning: count(): Parameter must be an array or an object that implements Countable in /homepages/6/d509196549/htdocs/droneoxygene/briefing.php on line 743
WEBCAM POUR VARENNES-VAUZELLES

Réglementation

Voler en sécurité

CARTES AERONAUTIQUE 1/500.000
CARTES VAC (LFQG)
SUP AIP




Chargement des AIP...
NOTAM (VARENNES-VAUZELLES + Terrain à proximité / FIR )




Chargement des NOTAMS...
CONTACT PREFECTURE 58


Avertissement : Les données mises à disposition sont indicatives. Oxygène Drone ne pourra être tenu responsable de dégâts causés aux biens et aux personnes.